createdAt,value
2023-02-13T00:00:45.121Z,26.47
2023-02-13T00:03:13.111Z,25.63
2023-02-13T00:05:40.561Z,26.80
2023-02-13T00:08:08.084Z,24.77
2023-02-13T00:10:37.688Z,25.77
2023-02-13T00:13:05.174Z,21.60
2023-02-13T00:15:32.743Z,22.77
2023-02-13T00:18:00.222Z,22.53
2023-02-13T00:20:27.749Z,22.83
2023-02-13T00:22:55.173Z,19.00
2023-02-13T00:25:22.585Z,19.13
2023-02-13T00:27:53.985Z,18.47
2023-02-13T00:30:23.026Z,15.07
2023-02-13T00:32:50.437Z,14.47
2023-02-13T00:35:17.981Z,15.23
2023-02-13T00:37:45.406Z,14.17
2023-02-13T00:40:13.776Z,14.20
2023-02-13T00:42:41.186Z,10.40
2023-02-13T00:45:10.775Z,9.80
2023-02-13T00:47:38.282Z,10.33
2023-02-13T00:50:06.894Z,10.27
2023-02-13T00:52:34.338Z,8.10
2023-02-13T00:55:01.803Z,8.03
2023-02-13T00:57:29.269Z,8.10
2023-02-13T00:59:56.712Z,6.80
2023-02-13T01:02:25.479Z,5.77
2023-02-13T01:04:52.999Z,8.07
2023-02-13T01:07:20.453Z,7.37
2023-02-13T01:09:47.887Z,6.03
2023-02-13T01:12:15.301Z,5.00
2023-02-13T01:14:42.745Z,6.73
2023-02-13T01:17:10.183Z,5.10
2023-02-13T01:19:38.925Z,15.17
2023-02-13T01:22:06.402Z,9.77
2023-02-13T01:24:34.201Z,16.53
2023-02-13T01:27:02.433Z,5.40
2023-02-13T01:29:30.290Z,6.93
2023-02-13T01:31:57.729Z,6.07
2023-02-13T01:34:25.343Z,5.00
2023-02-13T01:36:54.162Z,5.47
2023-02-13T01:39:21.748Z,5.57
2023-02-13T01:41:49.199Z,5.40
2023-02-13T01:44:49.481Z,5.27
2023-02-13T01:47:25.928Z,5.07
2023-02-13T01:50:02.658Z,6.90
2023-02-13T01:52:31.887Z,4.27
2023-02-13T01:54:59.510Z,6.27
2023-02-13T01:57:29.544Z,4.07
2023-02-13T02:00:00.854Z,4.27
2023-02-13T02:02:29.653Z,5.47
2023-02-13T02:04:57.294Z,4.20
2023-02-13T02:07:27.269Z,7.47
2023-02-13T02:09:59.998Z,5.57
2023-02-13T02:12:30.460Z,4.93
2023-02-13T02:15:01.178Z,4.83
2023-02-13T02:17:29.056Z,5.83
2023-02-13T02:20:05.517Z,5.90
2023-02-13T02:22:55.809Z,6.23
2023-02-13T02:25:47.113Z,7.20
2023-02-13T02:28:33.490Z,5.67
2023-02-13T02:31:43.808Z,5.60
2023-02-13T02:34:20.220Z,6.17
2023-02-13T02:37:03.118Z,5.83
2023-02-13T02:39:44.701Z,7.00
2023-02-13T02:42:21.754Z,8.23
2023-02-13T02:44:57.221Z,6.50
2023-02-13T02:47:47.141Z,7.10
2023-02-13T02:50:28.277Z,7.23
2023-02-13T02:53:05.952Z,8.23
2023-02-13T02:55:39.634Z,8.27
2023-02-13T02:58:34.190Z,9.20
2023-02-13T03:01:21.372Z,10.70
2023-02-13T03:04:07.761Z,9.40
2023-02-13T03:06:41.293Z,9.33
2023-02-13T03:09:31.775Z,10.53
2023-02-13T03:12:17.723Z,11.97
2023-02-13T03:14:45.391Z,10.13
2023-02-13T03:17:32.900Z,11.50
2023-02-13T03:20:51.969Z,12.17
2023-02-13T03:23:27.051Z,32.77
2023-02-13T03:26:14.143Z,16.50
2023-02-13T03:29:09.681Z,22.60
2023-02-13T03:31:45.360Z,12.30
2023-02-13T03:34:18.036Z,14.37
2023-02-13T03:37:11.071Z,13.83
2023-02-13T03:39:48.926Z,13.70
2023-02-13T03:42:22.879Z,13.80
2023-02-13T03:45:10.310Z,11.93
2023-02-13T03:47:39.476Z,14.27
2023-02-13T03:50:09.515Z,12.17
2023-02-13T03:52:43.817Z,13.97
2023-02-13T03:55:31.858Z,12.30
2023-02-13T03:58:26.314Z,13.17
2023-02-13T04:00:58.672Z,12.23
2023-02-13T04:03:29.902Z,12.87
2023-02-13T04:06:03.428Z,13.23
2023-02-13T04:08:32.231Z,13.80
2023-02-13T04:11:08.122Z,14.37
2023-02-13T04:13:40.586Z,14.80
2023-02-13T04:16:12.513Z,12.33
2023-02-13T04:18:40.674Z,13.90
2023-02-13T04:21:09.057Z,16.03
2023-02-13T04:23:37.808Z,15.07
2023-02-13T04:26:13.034Z,14.30
2023-02-13T04:28:40.499Z,15.57
2023-02-13T04:31:08.080Z,15.23
2023-02-13T04:33:35.560Z,25.73
2023-02-13T04:36:03.004Z,19.10
2023-02-13T04:38:30.479Z,15.57
2023-02-13T04:40:59.548Z,18.07
2023-02-13T04:43:27.230Z,14.97
2023-02-13T04:45:54.706Z,14.63
2023-02-13T04:48:22.164Z,13.83
2023-02-13T04:50:49.570Z,16.67
2023-02-13T04:53:17.014Z,12.43
2023-02-13T04:55:44.461Z,13.90
2023-02-13T04:58:13.320Z,11.73
2023-02-13T05:00:40.917Z,11.70
2023-02-13T05:03:10.413Z,12.37
2023-02-13T05:05:38.249Z,11.93
2023-02-13T05:08:06.328Z,13.53
2023-02-13T05:10:33.978Z,12.87
2023-02-13T05:13:01.519Z,14.83
2023-02-13T05:15:30.423Z,12.57
2023-02-13T05:17:58.030Z,12.80
2023-02-13T05:20:25.467Z,14.93
2023-02-13T05:23:12.061Z,12.93
2023-02-13T05:25:42.372Z,13.23
2023-02-13T05:28:30.376Z,10.77
2023-02-13T05:30:58.943Z,14.07
2023-02-13T05:33:26.869Z,13.77
2023-02-13T05:35:54.368Z,12.37
2023-02-13T05:38:21.842Z,13.33
2023-02-13T05:40:49.313Z,11.97
2023-02-13T05:43:16.923Z,12.00
2023-02-13T05:45:44.307Z,11.87
2023-02-13T05:48:13.144Z,11.37
2023-02-13T05:50:41.083Z,11.83
2023-02-13T05:53:08.514Z,10.63
2023-02-13T05:55:35.931Z,11.07
2023-02-13T05:58:03.328Z,10.83
2023-02-13T06:00:30.735Z,10.47
2023-02-13T06:02:58.170Z,10.67
2023-02-13T06:05:27.001Z,10.13
2023-02-13T06:07:54.416Z,10.33
2023-02-13T06:10:21.829Z,9.53
2023-02-13T06:12:49.336Z,9.13
2023-02-13T06:15:16.857Z,10.27
2023-02-13T06:17:44.335Z,9.20
2023-02-13T06:20:12.469Z,10.67
2023-02-13T06:22:41.273Z,11.33
2023-02-13T06:25:08.971Z,9.80
2023-02-13T06:27:36.416Z,10.10
2023-02-13T06:30:04.169Z,8.77
2023-02-13T06:32:31.587Z,8.37
2023-02-13T06:34:59.027Z,8.33
2023-02-13T06:37:26.429Z,13.07
2023-02-13T06:39:55.178Z,13.40
2023-02-13T06:42:22.657Z,10.70
2023-02-13T06:44:50.195Z,8.47
2023-02-13T06:47:17.665Z,8.13
2023-02-13T06:49:45.129Z,9.27
2023-02-13T06:52:12.516Z,8.13
2023-02-13T06:54:47.411Z,9.50
2023-02-13T06:57:16.924Z,8.47
2023-02-13T06:59:44.454Z,7.80
2023-02-13T07:02:12.732Z,8.00
2023-02-13T07:04:40.232Z,8.13
2023-02-13T07:07:07.760Z,7.67
2023-02-13T07:09:35.193Z,7.93
2023-02-13T07:12:04.447Z,8.23
2023-02-13T07:14:33.214Z,11.67
2023-02-13T07:17:00.754Z,8.23
2023-02-13T07:19:28.165Z,7.97
2023-02-13T07:21:55.607Z,11.57
2023-02-13T07:24:23.021Z,7.93
2023-02-13T07:26:50.601Z,10.33
2023-02-13T07:29:18.032Z,8.27
2023-02-13T07:31:46.838Z,8.07
2023-02-13T07:34:14.265Z,8.53
2023-02-13T07:36:41.701Z,8.87
2023-02-13T07:39:09.186Z,11.53
2023-02-13T07:41:36.697Z,11.50
2023-02-13T07:44:04.206Z,10.23
2023-02-13T07:46:31.777Z,9.27
2023-02-13T07:49:00.675Z,9.13
2023-02-13T07:51:29.078Z,8.90
2023-02-13T07:53:57.703Z,15.17
2023-02-13T07:56:25.476Z,9.63
2023-02-13T07:58:52.944Z,9.97
2023-02-13T08:01:20.874Z,10.77
2023-02-13T08:03:51.752Z,8.53
2023-02-13T08:06:22.037Z,9.03
2023-02-13T08:09:09.640Z,10.53
2023-02-13T08:11:54.577Z,9.40
2023-02-13T08:14:22.400Z,10.60
2023-02-13T08:16:49.974Z,9.80
2023-02-13T08:19:17.844Z,11.87
2023-02-13T08:21:46.902Z,9.33
2023-02-13T08:24:14.606Z,10.43
2023-02-13T08:26:42.043Z,10.00
2023-02-13T08:29:10.355Z,10.07
2023-02-13T08:31:37.870Z,10.37
2023-02-13T08:34:05.592Z,10.40
2023-02-13T08:36:33.030Z,10.73
2023-02-13T08:39:01.809Z,9.40
2023-02-13T08:41:29.198Z,9.73
2023-02-13T08:43:56.694Z,15.33
2023-02-13T08:46:24.208Z,12.93
2023-02-13T08:48:52.084Z,9.87
2023-02-13T08:51:19.689Z,11.43
2023-02-13T08:53:47.125Z,13.10
2023-02-13T08:56:16.020Z,12.03
2023-02-13T08:58:43.425Z,9.07
2023-02-13T09:01:10.975Z,11.53
2023-02-13T09:03:38.434Z,9.23
2023-02-13T09:06:06.259Z,15.43
2023-02-13T09:08:35.919Z,16.50
2023-02-13T09:11:06.503Z,18.33
2023-02-13T09:13:37.079Z,13.93
2023-02-13T09:16:22.121Z,9.21
2023-02-13T09:18:50.669Z,8.80
2023-02-13T09:21:19.374Z,9.30
2023-02-13T09:23:47.225Z,10.70
2023-02-13T09:26:16.420Z,8.40
2023-02-13T09:28:46.082Z,10.30
2023-02-13T09:31:16.533Z,12.63
2023-02-13T09:33:44.898Z,20.03
2023-02-13T09:36:14.534Z,10.63
2023-02-13T09:38:44.087Z,15.13
2023-02-13T09:41:17.349Z,12.73
2023-02-13T09:43:50.012Z,11.97
2023-02-13T09:46:21.271Z,16.53
2023-02-13T09:48:52.756Z,11.73
2023-02-13T09:51:23.297Z,11.27
2023-02-13T09:53:55.633Z,16.57
2023-02-13T09:56:34.313Z,15.03
2023-02-13T09:59:13.425Z,12.53
2023-02-13T10:01:47.310Z,14.77
2023-02-13T10:04:30.030Z,11.97
2023-02-13T10:07:09.184Z,12.57
2023-02-13T10:09:45.474Z,11.60
2023-02-13T10:12:31.483Z,13.13
2023-02-13T10:15:16.756Z,13.07
2023-02-13T10:17:47.713Z,14.93
2023-02-13T10:20:27.131Z,12.77
2023-02-13T10:23:00.816Z,15.40
2023-02-13T10:25:30.802Z,12.90
2023-02-13T10:28:08.483Z,12.93
2023-02-13T10:30:47.857Z,10.93
2023-02-13T10:33:20.874Z,12.13
2023-02-13T10:35:54.278Z,17.07
2023-02-13T10:38:24.358Z,13.43
2023-02-13T10:41:06.937Z,12.93
2023-02-13T10:43:41.168Z,13.57
2023-02-13T10:46:21.220Z,11.53
2023-02-13T10:49:06.289Z,14.03
2023-02-13T10:51:41.366Z,11.97
2023-02-13T10:54:31.863Z,11.90
2023-02-13T10:57:10.912Z,12.57
2023-02-13T10:59:51.470Z,12.77
2023-02-13T11:02:25.188Z,13.13
2023-02-13T11:04:55.821Z,13.13
2023-02-13T11:07:27.309Z,17.73
2023-02-13T11:10:00.210Z,13.67
2023-02-13T11:12:29.760Z,12.53
2023-02-13T11:14:59.220Z,14.53
2023-02-13T11:17:30.970Z,14.27
2023-02-13T11:20:00.723Z,13.73
2023-02-13T11:22:33.223Z,14.23
2023-02-13T11:25:03.389Z,14.67
2023-02-13T11:27:34.272Z,15.70
2023-02-13T11:30:03.806Z,15.40
2023-02-13T11:32:34.225Z,15.40
2023-02-13T11:35:26.640Z,17.87
2023-02-13T11:38:14.476Z,17.13
2023-02-13T11:40:44.436Z,17.70
2023-02-13T11:43:19.601Z,17.33
2023-02-13T11:45:47.266Z,16.57
2023-02-13T11:48:23.200Z,19.23
2023-02-13T11:50:57.111Z,18.40
2023-02-13T11:53:27.900Z,16.37
2023-02-13T11:56:04.686Z,19.93
2023-02-13T11:58:32.251Z,18.40
2023-02-13T12:01:26.284Z,18.23
2023-02-13T12:04:04.394Z,16.40
2023-02-13T12:06:39.532Z,22.60
2023-02-13T12:09:13.605Z,23.30
2023-02-13T12:11:46.341Z,19.57
2023-02-13T12:14:19.200Z,18.33
2023-02-13T12:16:51.759Z,17.80
2023-02-13T12:19:27.035Z,18.17
2023-02-13T12:22:15.986Z,17.50
2023-02-13T12:24:57.726Z,19.13
2023-02-13T12:27:35.408Z,19.57
2023-02-13T12:30:37.920Z,18.93
2023-02-13T12:33:19.630Z,18.87
2023-02-13T12:35:57.357Z,18.57
2023-02-13T12:38:47.070Z,19.37
2023-02-13T12:41:20.904Z,19.13
2023-02-13T12:44:08.235Z,17.87
2023-02-13T12:46:41.422Z,20.43
2023-02-13T12:49:25.339Z,19.67
2023-02-13T12:52:05.273Z,17.40
2023-02-13T12:54:43.691Z,18.93
2023-02-13T12:57:21.629Z,17.87
2023-02-13T13:00:04.273Z,19.00
2023-02-13T13:03:10.633Z,20.07
2023-02-13T13:05:58.763Z,17.70
2023-02-13T13:08:50.653Z,18.10
2023-02-13T13:11:33.142Z,17.53
2023-02-13T13:14:12.792Z,17.67
2023-02-13T13:16:50.075Z,19.03
2023-02-13T13:19:32.994Z,17.80
2023-02-13T13:22:06.438Z,18.63
2023-02-13T13:24:46.321Z,19.70
2023-02-13T13:27:21.316Z,18.63
2023-02-13T13:29:55.299Z,17.77
2023-02-13T13:32:24.098Z,18.90
2023-02-13T13:34:52.546Z,17.20
2023-02-13T13:37:30.453Z,19.00
2023-02-13T13:40:10.178Z,19.70
2023-02-13T13:42:44.045Z,20.63
2023-02-13T13:45:31.343Z,18.00
2023-02-13T13:48:15.259Z,18.03
2023-02-13T13:50:44.463Z,21.47
2023-02-13T13:53:16.050Z,23.07
2023-02-13T13:56:09.172Z,21.10
2023-02-13T13:58:41.274Z,23.90
2023-02-13T14:01:23.960Z,17.77
2023-02-13T14:03:53.804Z,19.80
2023-02-13T14:06:23.408Z,19.17
2023-02-13T14:09:07.362Z,19.20
2023-02-13T14:11:47.156Z,19.60
2023-02-13T14:14:52.512Z,18.70
2023-02-13T14:17:52.952Z,17.77
2023-02-13T14:20:34.012Z,20.77
2023-02-13T14:23:09.233Z,20.53
2023-02-13T14:25:36.812Z,21.20
2023-02-13T14:28:07.252Z,18.80
2023-02-13T14:30:37.675Z,19.40
2023-02-13T14:33:08.208Z,19.97
2023-02-13T14:35:38.025Z,21.43
2023-02-13T14:38:08.052Z,17.83
2023-02-13T14:40:53.991Z,19.93
2023-02-13T14:43:40.277Z,17.93
2023-02-13T14:46:25.725Z,18.47
2023-02-13T14:48:59.121Z,18.33
2023-02-13T14:51:35.944Z,17.17
2023-02-13T14:54:16.132Z,19.87
2023-02-13T14:56:47.330Z,19.13
2023-02-13T14:59:18.563Z,17.37
2023-02-13T15:01:52.977Z,19.77
2023-02-13T15:04:26.983Z,19.93
2023-02-13T15:06:55.410Z,21.10
2023-02-13T15:09:32.301Z,18.83
2023-02-13T15:12:00.266Z,19.83
2023-02-13T15:14:35.065Z,20.20
2023-02-13T15:17:12.131Z,18.63
2023-02-13T15:19:45.980Z,20.20
2023-02-13T15:22:21.167Z,18.50
2023-02-13T15:24:50.567Z,21.23
2023-02-13T15:27:21.920Z,22.60
2023-02-13T15:30:02.101Z,22.67
2023-02-13T15:32:33.990Z,17.97
2023-02-13T15:35:01.726Z,20.90
2023-02-13T15:37:31.473Z,17.87
2023-02-13T15:40:15.341Z,23.83
2023-02-13T15:42:43.083Z,22.33
2023-02-13T15:45:17.288Z,19.77
2023-02-13T15:47:46.372Z,21.00
2023-02-13T15:50:22.969Z,17.97
2023-02-13T15:52:51.994Z,20.33
2023-02-13T15:55:22.758Z,18.90
2023-02-13T15:57:52.815Z,18.17
2023-02-13T16:00:26.447Z,17.53
2023-02-13T16:02:56.027Z,17.93
2023-02-13T16:05:38.884Z,18.53
2023-02-13T16:08:35.911Z,22.33
2023-02-13T16:11:29.493Z,20.27
2023-02-13T16:14:17.798Z,18.10
2023-02-13T16:16:51.447Z,21.63
2023-02-13T16:19:24.730Z,19.33
2023-02-13T16:21:53.589Z,16.53
2023-02-13T16:24:22.663Z,19.77
2023-02-13T16:26:50.911Z,20.63
2023-02-13T16:29:20.950Z,20.47
2023-02-13T16:31:51.049Z,19.10
2023-02-13T16:34:26.917Z,19.40
2023-02-13T16:36:54.881Z,18.03
2023-02-13T16:39:27.168Z,18.90
2023-02-13T16:41:55.721Z,18.13
2023-02-13T16:44:25.548Z,21.33
2023-02-13T16:46:57.428Z,21.33
2023-02-13T16:49:28.114Z,19.10
2023-02-13T16:51:59.437Z,21.67
2023-02-13T16:54:31.546Z,20.77
2023-02-13T16:57:01.094Z,20.00
2023-02-13T16:59:33.724Z,20.17
2023-02-13T17:02:23.926Z,22.33
2023-02-13T17:04:53.815Z,20.23
2023-02-13T17:07:24.762Z,20.87
2023-02-13T17:09:58.136Z,20.57
2023-02-13T17:12:26.998Z,24.83
2023-02-13T17:14:54.545Z,21.20
2023-02-13T17:17:24.054Z,21.93
2023-02-13T17:19:51.690Z,21.60
2023-02-13T17:22:36.794Z,24.27
2023-02-13T17:25:07.360Z,21.87
2023-02-13T17:27:35.231Z,21.87
2023-02-13T17:30:02.873Z,20.23
2023-02-13T17:32:31.847Z,20.20
2023-02-13T17:34:59.298Z,21.97
2023-02-13T17:37:28.699Z,24.50
2023-02-13T17:39:56.152Z,23.87
2023-02-13T17:42:25.929Z,20.93
2023-02-13T17:44:54.414Z,24.07
2023-02-13T17:47:22.195Z,25.13
2023-02-13T17:49:53.564Z,23.13
2023-02-13T17:52:26.840Z,20.50
2023-02-13T17:54:54.275Z,20.20
2023-02-13T17:57:21.670Z,24.53
2023-02-13T17:59:49.191Z,20.43
2023-02-13T18:02:18.434Z,26.30
2023-02-13T18:04:46.221Z,23.77
2023-02-13T18:07:17.389Z,23.57
2023-02-13T18:09:45.101Z,23.90
2023-02-13T18:12:15.141Z,21.27
2023-02-13T18:14:42.807Z,23.57
2023-02-13T18:17:10.382Z,22.43
2023-02-13T18:19:38.307Z,22.13
2023-02-13T18:22:06.172Z,25.17
2023-02-13T18:24:36.527Z,25.87
2023-02-13T18:27:05.158Z,24.23
2023-02-13T18:29:32.561Z,23.83
2023-02-13T18:32:00.020Z,22.97
2023-02-13T18:34:27.507Z,22.97
2023-02-13T18:36:55.020Z,29.13
2023-02-13T18:39:22.470Z,26.50
2023-02-13T18:41:51.245Z,25.27
2023-02-13T18:44:28.164Z,24.63
2023-02-13T18:46:56.277Z,21.43
2023-02-13T18:49:23.696Z,23.47
2023-02-13T18:51:51.183Z,22.10
2023-02-13T18:54:18.849Z,24.70
2023-02-13T18:56:46.622Z,20.97
2023-02-13T18:59:15.426Z,27.43
2023-02-13T19:01:42.928Z,24.43
2023-02-13T19:04:11.262Z,26.80
2023-02-13T19:06:40.338Z,23.07
2023-02-13T19:09:08.077Z,23.57
2023-02-13T19:11:35.700Z,25.33
2023-02-13T19:14:03.185Z,24.70
2023-02-13T19:16:33.749Z,24.17
2023-02-13T19:19:03.159Z,23.33
2023-02-13T19:21:33.438Z,25.27
2023-02-13T19:24:02.920Z,24.80
2023-02-13T19:26:30.562Z,25.50
2023-02-13T19:28:58.757Z,25.03
2023-02-13T19:31:28.505Z,26.80
2023-02-13T19:33:57.715Z,22.77
2023-02-13T19:36:28.209Z,26.60
2023-02-13T19:38:56.858Z,24.57
2023-02-13T19:41:24.471Z,23.43
2023-02-13T19:43:53.508Z,24.77
2023-02-13T19:46:22.718Z,27.03
2023-02-13T19:48:50.886Z,25.43
2023-02-13T19:51:21.298Z,25.23
2023-02-13T19:53:49.240Z,25.07
2023-02-13T19:56:17.055Z,23.37
2023-02-13T19:58:44.538Z,24.20
2023-02-13T20:01:14.606Z,26.67
2023-02-13T20:03:42.768Z,28.90
2023-02-13T20:06:14.907Z,27.57
2023-02-13T20:08:44.251Z,25.33
2023-02-13T20:11:13.560Z,26.43
2023-02-13T20:13:41.233Z,25.43
2023-02-13T20:16:11.013Z,28.87
2023-02-13T20:18:39.664Z,28.07
2023-02-13T20:21:07.525Z,26.23
2023-02-13T20:23:35.338Z,28.63
2023-02-13T20:26:08.123Z,27.53
2023-02-13T20:28:35.615Z,26.73
2023-02-13T20:31:04.045Z,28.07
2023-02-13T20:33:31.781Z,35.50
2023-02-13T20:35:59.206Z,29.10
2023-02-13T20:38:26.830Z,30.17
2023-02-13T20:40:54.300Z,31.80
2023-02-13T20:43:23.124Z,34.13
2023-02-13T20:45:50.616Z,28.83
2023-02-13T20:48:18.078Z,32.23
2023-02-13T20:50:45.506Z,31.33
2023-02-13T20:53:13.034Z,30.03
2023-02-13T20:55:40.535Z,30.20
2023-02-13T20:58:07.950Z,30.43
2023-02-13T21:00:36.740Z,31.20
2023-02-13T21:03:04.279Z,31.43
2023-02-13T21:05:31.771Z,32.90
2023-02-13T21:07:59.301Z,31.93
2023-02-13T21:10:26.827Z,35.53
2023-02-13T21:12:54.546Z,28.20
2023-02-13T21:15:22.501Z,30.90
2023-02-13T21:17:51.285Z,31.17
2023-02-13T21:20:18.992Z,31.80
2023-02-13T21:22:47.126Z,29.13
2023-02-13T21:25:15.610Z,31.67
2023-02-13T21:27:43.217Z,30.00
2023-02-13T21:30:11.622Z,28.23
2023-02-13T21:32:39.399Z,34.07
2023-02-13T21:35:09.504Z,31.57
2023-02-13T21:37:37.006Z,31.20
2023-02-13T21:40:04.960Z,32.00
2023-02-13T21:42:32.365Z,30.27
2023-02-13T21:44:59.791Z,28.73
2023-02-13T21:47:27.293Z,29.17
2023-02-13T21:49:54.798Z,29.37
2023-02-13T21:52:24.072Z,30.37
2023-02-13T21:54:51.530Z,33.17
2023-02-13T21:57:18.931Z,31.60
2023-02-13T21:59:46.354Z,28.13
2023-02-13T22:02:13.898Z,26.57
2023-02-13T22:04:41.770Z,27.53
2023-02-13T22:07:09.660Z,30.60
2023-02-13T22:09:38.755Z,30.57
2023-02-13T22:12:06.522Z,28.73
2023-02-13T22:14:34.106Z,30.83
2023-02-13T22:17:01.613Z,27.97
2023-02-13T22:19:29.511Z,27.47
2023-02-13T22:21:57.004Z,29.30
2023-02-13T22:24:24.838Z,34.23
2023-02-13T22:26:53.607Z,31.20
2023-02-13T22:29:23.094Z,36.27
2023-02-13T22:31:50.674Z,29.53
2023-02-13T22:34:18.318Z,29.97
2023-02-13T22:36:45.808Z,31.47
2023-02-13T22:39:13.706Z,26.27
2023-02-13T22:41:42.322Z,26.90
2023-02-13T22:44:11.405Z,28.60
2023-02-13T22:46:39.073Z,31.07
2023-02-13T22:49:06.555Z,27.03
2023-02-13T22:51:36.424Z,30.73
2023-02-13T22:54:05.336Z,31.77
2023-02-13T22:56:33.590Z,33.77
2023-02-13T22:59:01.326Z,30.23
2023-02-13T23:01:30.316Z,33.87
2023-02-13T23:03:58.046Z,30.53
2023-02-13T23:06:26.805Z,30.67
2023-02-13T23:08:54.457Z,33.83
2023-02-13T23:11:41.791Z,29.13
2023-02-13T23:14:10.062Z,30.07
2023-02-13T23:16:58.035Z,29.40
2023-02-13T23:19:27.733Z,34.73
2023-02-13T23:21:55.708Z,29.90
2023-02-13T23:24:23.213Z,31.13
2023-02-13T23:26:50.732Z,29.50
2023-02-13T23:29:18.722Z,28.37
2023-02-13T23:31:48.749Z,27.70
2023-02-13T23:34:16.307Z,28.93
2023-02-13T23:36:43.840Z,22.97
2023-02-13T23:39:11.832Z,23.87
2023-02-13T23:41:39.289Z,27.07
2023-02-13T23:44:06.696Z,27.43
2023-02-13T23:46:34.196Z,31.40
2023-02-13T23:49:03.014Z,30.87
2023-02-13T23:51:30.452Z,29.87
2023-02-13T23:53:58.020Z,31.47
2023-02-13T23:56:26.285Z,29.30
2023-02-13T23:58:56.541Z,28.70
